sensor_id;sensor_type;location;lat;lon;timestamp;P1;durP1;ratioP1;P2;durP2;ratioP2
64473;SDS011;50857;53.338;8.486;2022-08-04T00:01:01;16.15;;;7.13;;
64473;SDS011;50857;53.338;8.486;2022-08-04T00:03:28;14.80;;;6.90;;
64473;SDS011;50857;53.338;8.486;2022-08-04T00:05:59;12.27;;;7.15;;
64473;SDS011;50857;53.338;8.486;2022-08-04T00:08:31;13.50;;;6.90;;
64473;SDS011;50857;53.338;8.486;2022-08-04T00:10:59;11.32;;;5.68;;
64473;SDS011;50857;53.338;8.486;2022-08-04T00:13:27;11.90;;;5.68;;
64473;SDS011;50857;53.338;8.486;2022-08-04T00:15:56;12.00;;;6.53;;
64473;SDS011;50857;53.338;8.486;2022-08-04T00:18:25;13.75;;;6.75;;
64473;SDS011;50857;53.338;8.486;2022-08-04T00:20:52;12.30;;;5.45;;
64473;SDS011;50857;53.338;8.486;2022-08-04T00:23:22;11.93;;;6.40;;
64473;SDS011;50857;53.338;8.486;2022-08-04T00:25:51;12.98;;;6.63;;
64473;SDS011;50857;53.338;8.486;2022-08-04T00:28:18;12.07;;;6.68;;
64473;SDS011;50857;53.338;8.486;2022-08-04T00:30:44;10.80;;;6.40;;
64473;SDS011;50857;53.338;8.486;2022-08-04T00:33:11;11.82;;;5.97;;
64473;SDS011;50857;53.338;8.486;2022-08-04T00:35:39;10.50;;;5.40;;
64473;SDS011;50857;53.338;8.486;2022-08-04T00:38:05;14.05;;;7.13;;
64473;SDS011;50857;53.338;8.486;2022-08-04T00:40:35;14.00;;;7.47;;
64473;SDS011;50857;53.338;8.486;2022-08-04T00:43:12;11.10;;;6.38;;
64473;SDS011;50857;53.338;8.486;2022-08-04T00:45:48;11.45;;;6.50;;
64473;SDS011;50857;53.338;8.486;2022-08-04T00:48:19;11.98;;;6.35;;
64473;SDS011;50857;53.338;8.486;2022-08-04T00:50:51;12.02;;;5.55;;
64473;SDS011;50857;53.338;8.486;2022-08-04T00:53:26;11.68;;;7.25;;
64473;SDS011;50857;53.338;8.486;2022-08-04T00:56:13;11.40;;;6.80;;
64473;SDS011;50857;53.338;8.486;2022-08-04T01:01:46;12.38;;;4.75;;
64473;SDS011;50857;53.338;8.486;2022-08-04T01:04:19;8.70;;;4.60;;
64473;SDS011;50857;53.338;8.486;2022-08-04T01:06:55;15.02;;;7.85;;
64473;SDS011;50857;53.338;8.486;2022-08-04T01:09:32;18.45;;;7.30;;
64473;SDS011;50857;53.338;8.486;2022-08-04T01:12:10;16.90;;;6.82;;
64473;SDS011;50857;53.338;8.486;2022-08-04T01:14:44;12.50;;;6.43;;
64473;SDS011;50857;53.338;8.486;2022-08-04T01:17:17;9.68;;;4.72;;
64473;SDS011;50857;53.338;8.486;2022-08-04T01:19:57;11.60;;;6.15;;
64473;SDS011;50857;53.338;8.486;2022-08-04T01:25:27;10.50;;;5.75;;
64473;SDS011;50857;53.338;8.486;2022-08-04T01:28:02;8.05;;;4.75;;
64473;SDS011;50857;53.338;8.486;2022-08-04T01:30:33;12.18;;;6.43;;
64473;SDS011;50857;53.338;8.486;2022-08-04T01:33:01;12.65;;;7.00;;
64473;SDS011;50857;53.338;8.486;2022-08-04T01:35:28;10.43;;;5.53;;
64473;SDS011;50857;53.338;8.486;2022-08-04T01:37:56;8.73;;;4.80;;
64473;SDS011;50857;53.338;8.486;2022-08-04T01:40:26;7.97;;;4.72;;
64473;SDS011;50857;53.338;8.486;2022-08-04T01:42:52;7.95;;;4.70;;
64473;SDS011;50857;53.338;8.486;2022-08-04T01:45:20;9.75;;;4.45;;
64473;SDS011;50857;53.338;8.486;2022-08-04T01:47:51;10.70;;;5.85;;
64473;SDS011;50857;53.338;8.486;2022-08-04T01:50:19;8.82;;;4.82;;
64473;SDS011;50857;53.338;8.486;2022-08-04T01:52:46;8.95;;;4.38;;
64473;SDS011;50857;53.338;8.486;2022-08-04T01:55:13;8.77;;;4.45;;
64473;SDS011;50857;53.338;8.486;2022-08-04T01:57:40;9.23;;;4.57;;
64473;SDS011;50857;53.338;8.486;2022-08-04T02:00:08;8.50;;;4.70;;
64473;SDS011;50857;53.338;8.486;2022-08-04T02:02:35;8.32;;;4.15;;
64473;SDS011;50857;53.338;8.486;2022-08-04T02:05:03;8.00;;;4.22;;
64473;SDS011;50857;53.338;8.486;2022-08-04T02:07:39;8.20;;;4.70;;
64473;SDS011;50857;53.338;8.486;2022-08-04T02:10:13;8.70;;;4.07;;
64473;SDS011;50857;53.338;8.486;2022-08-04T02:12:47;8.82;;;4.68;;
64473;SDS011;50857;53.338;8.486;2022-08-04T02:15:18;9.05;;;4.47;;
64473;SDS011;50857;53.338;8.486;2022-08-04T02:17:49;6.88;;;3.92;;
64473;SDS011;50857;53.338;8.486;2022-08-04T02:20:22;8.05;;;4.05;;
64473;SDS011;50857;53.338;8.486;2022-08-04T02:22:51;7.55;;;3.97;;
64473;SDS011;50857;53.338;8.486;2022-08-04T02:25:19;7.00;;;3.92;;
64473;SDS011;50857;53.338;8.486;2022-08-04T02:27:54;8.80;;;3.78;;
64473;SDS011;50857;53.338;8.486;2022-08-04T02:30:21;6.53;;;3.92;;
64473;SDS011;50857;53.338;8.486;2022-08-04T02:32:51;9.13;;;4.18;;
64473;SDS011;50857;53.338;8.486;2022-08-04T02:35:24;6.90;;;3.88;;
64473;SDS011;50857;53.338;8.486;2022-08-04T02:37:53;7.45;;;3.78;;
64473;SDS011;50857;53.338;8.486;2022-08-04T02:40:22;7.93;;;3.85;;
64473;SDS011;50857;53.338;8.486;2022-08-04T02:42:50;7.80;;;3.85;;
64473;SDS011;50857;53.338;8.486;2022-08-04T02:45:19;7.50;;;3.80;;
64473;SDS011;50857;53.338;8.486;2022-08-04T02:47:46;7.15;;;4.20;;
64473;SDS011;50857;53.338;8.486;2022-08-04T02:50:13;7.63;;;3.70;;
64473;SDS011;50857;53.338;8.486;2022-08-04T02:52:41;6.78;;;3.88;;
64473;SDS011;50857;53.338;8.486;2022-08-04T02:55:08;8.00;;;3.83;;
64473;SDS011;50857;53.338;8.486;2022-08-04T02:57:36;6.40;;;3.40;;
64473;SDS011;50857;53.338;8.486;2022-08-04T03:00:04;7.68;;;3.80;;
64473;SDS011;50857;53.338;8.486;2022-08-04T03:02:33;7.05;;;4.07;;
64473;SDS011;50857;53.338;8.486;2022-08-04T03:05:06;7.15;;;3.70;;
64473;SDS011;50857;53.338;8.486;2022-08-04T03:07:45;7.07;;;3.92;;
64473;SDS011;50857;53.338;8.486;2022-08-04T03:10:22;6.72;;;3.88;;
64473;SDS011;50857;53.338;8.486;2022-08-04T03:13:10;6.68;;;3.72;;
64473;SDS011;50857;53.338;8.486;2022-08-04T03:21:21;6.93;;;3.75;;
64473;SDS011;50857;53.338;8.486;2022-08-04T03:26:53;6.45;;;3.38;;
64473;SDS011;50857;53.338;8.486;2022-08-04T03:29:39;6.97;;;3.30;;
64473;SDS011;50857;53.338;8.486;2022-08-04T03:32:32;6.95;;;3.63;;
64473;SDS011;50857;53.338;8.486;2022-08-04T03:35:09;6.53;;;3.50;;
64473;SDS011;50857;53.338;8.486;2022-08-04T03:37:52;6.53;;;3.10;;
64473;SDS011;50857;53.338;8.486;2022-08-04T03:40:35;6.95;;;3.60;;
64473;SDS011;50857;53.338;8.486;2022-08-04T03:46:14;8.57;;;4.22;;
64473;SDS011;50857;53.338;8.486;2022-08-04T03:51:35;6.82;;;3.58;;
64473;SDS011;50857;53.338;8.486;2022-08-04T04:00:03;6.53;;;3.40;;
64473;SDS011;50857;53.338;8.486;2022-08-04T04:02:39;7.80;;;3.40;;
64473;SDS011;50857;53.338;8.486;2022-08-04T04:05:29;8.35;;;3.17;;
64473;SDS011;50857;53.338;8.486;2022-08-04T04:08:11;6.88;;;3.15;;
64473;SDS011;50857;53.338;8.486;2022-08-04T04:10:50;6.03;;;3.40;;
64473;SDS011;50857;53.338;8.486;2022-08-04T04:13:29;8.52;;;3.30;;
64473;SDS011;50857;53.338;8.486;2022-08-04T04:16:07;6.80;;;3.40;;
64473;SDS011;50857;53.338;8.486;2022-08-04T04:21:35;7.25;;;3.15;;
64473;SDS011;50857;53.338;8.486;2022-08-04T04:26:54;8.85;;;3.17;;
64473;SDS011;50857;53.338;8.486;2022-08-04T04:29:28;8.38;;;3.88;;
64473;SDS011;50857;53.338;8.486;2022-08-04T04:32:02;8.63;;;3.80;;
64473;SDS011;50857;53.338;8.486;2022-08-04T04:34:41;9.18;;;3.38;;
64473;SDS011;50857;53.338;8.486;2022-08-04T04:40:06;7.80;;;3.30;;
64473;SDS011;50857;53.338;8.486;2022-08-04T04:42:37;9.93;;;3.03;;
64473;SDS011;50857;53.338;8.486;2022-08-04T04:48:00;8.90;;;3.13;;
64473;SDS011;50857;53.338;8.486;2022-08-04T04:50:31;8.13;;;3.05;;
64473;SDS011;50857;53.338;8.486;2022-08-04T04:53:03;8.77;;;3.60;;
64473;SDS011;50857;53.338;8.486;2022-08-04T04:55:34;10.77;;;3.30;;
64473;SDS011;50857;53.338;8.486;2022-08-04T04:58:04;11.00;;;3.28;;
64473;SDS011;50857;53.338;8.486;2022-08-04T05:00:33;8.38;;;3.22;;
64473;SDS011;50857;53.338;8.486;2022-08-04T05:03:08;8.32;;;2.97;;
64473;SDS011;50857;53.338;8.486;2022-08-04T05:05:57;10.20;;;3.00;;
64473;SDS011;50857;53.338;8.486;2022-08-04T05:11:24;9.80;;;3.70;;
64473;SDS011;50857;53.338;8.486;2022-08-04T05:13:56;7.88;;;3.25;;
64473;SDS011;50857;53.338;8.486;2022-08-04T05:16:25;9.50;;;3.38;;
64473;SDS011;50857;53.338;8.486;2022-08-04T05:18:53;6.45;;;3.03;;
64473;SDS011;50857;53.338;8.486;2022-08-04T05:21:27;6.60;;;3.20;;
64473;SDS011;50857;53.338;8.486;2022-08-04T05:23:59;6.30;;;3.08;;
64473;SDS011;50857;53.338;8.486;2022-08-04T05:26:30;6.40;;;3.05;;
64473;SDS011;50857;53.338;8.486;2022-08-04T05:28:58;6.50;;;2.67;;
64473;SDS011;50857;53.338;8.486;2022-08-04T05:31:28;8.10;;;3.33;;
64473;SDS011;50857;53.338;8.486;2022-08-04T05:33:58;7.47;;;3.90;;
64473;SDS011;50857;53.338;8.486;2022-08-04T05:36:29;11.10;;;3.95;;
64473;SDS011;50857;53.338;8.486;2022-08-04T05:38:57;9.82;;;3.85;;
64473;SDS011;50857;53.338;8.486;2022-08-04T05:41:25;11.82;;;3.45;;
64473;SDS011;50857;53.338;8.486;2022-08-04T05:43:53;7.13;;;3.65;;
64473;SDS011;50857;53.338;8.486;2022-08-04T05:46:20;10.48;;;3.80;;
64473;SDS011;50857;53.338;8.486;2022-08-04T05:48:47;8.68;;;3.60;;
64473;SDS011;50857;53.338;8.486;2022-08-04T05:51:14;11.98;;;3.92;;
64473;SDS011;50857;53.338;8.486;2022-08-04T05:53:41;32.10;;;9.68;;
64473;SDS011;50857;53.338;8.486;2022-08-04T05:56:08;35.00;;;9.32;;
64473;SDS011;50857;53.338;8.486;2022-08-04T05:58:36;32.92;;;10.43;;
64473;SDS011;50857;53.338;8.486;2022-08-04T06:01:05;27.27;;;8.95;;
64473;SDS011;50857;53.338;8.486;2022-08-04T06:03:33;26.95;;;7.13;;
64473;SDS011;50857;53.338;8.486;2022-08-04T06:06:00;15.45;;;6.40;;
64473;SDS011;50857;53.338;8.486;2022-08-04T06:08:28;18.25;;;5.85;;
64473;SDS011;50857;53.338;8.486;2022-08-04T06:10:55;14.65;;;5.45;;
64473;SDS011;50857;53.338;8.486;2022-08-04T06:13:25;18.42;;;5.00;;
64473;SDS011;50857;53.338;8.486;2022-08-04T06:15:53;15.88;;;4.38;;
64473;SDS011;50857;53.338;8.486;2022-08-04T06:18:22;15.75;;;4.20;;
64473;SDS011;50857;53.338;8.486;2022-08-04T06:20:51;14.43;;;4.50;;
64473;SDS011;50857;53.338;8.486;2022-08-04T06:23:19;11.57;;;3.83;;
64473;SDS011;50857;53.338;8.486;2022-08-04T06:25:46;11.52;;;3.72;;
64473;SDS011;50857;53.338;8.486;2022-08-04T06:28:14;8.77;;;3.53;;
64473;SDS011;50857;53.338;8.486;2022-08-04T06:30:41;11.38;;;3.42;;
64473;SDS011;50857;53.338;8.486;2022-08-04T06:33:11;10.45;;;3.30;;
64473;SDS011;50857;53.338;8.486;2022-08-04T06:35:50;12.35;;;3.90;;
64473;SDS011;50857;53.338;8.486;2022-08-04T06:38:18;16.17;;;3.83;;
64473;SDS011;50857;53.338;8.486;2022-08-04T06:40:44;12.63;;;3.33;;
64473;SDS011;50857;53.338;8.486;2022-08-04T06:43:11;11.90;;;3.90;;
64473;SDS011;50857;53.338;8.486;2022-08-04T06:45:38;9.82;;;3.10;;
64473;SDS011;50857;53.338;8.486;2022-08-04T06:48:06;8.65;;;3.20;;
64473;SDS011;50857;53.338;8.486;2022-08-04T06:50:34;10.00;;;3.08;;
64473;SDS011;50857;53.338;8.486;2022-08-04T06:53:02;7.95;;;3.22;;
64473;SDS011;50857;53.338;8.486;2022-08-04T06:55:29;10.25;;;3.70;;
64473;SDS011;50857;53.338;8.486;2022-08-04T06:57:55;9.88;;;3.10;;
64473;SDS011;50857;53.338;8.486;2022-08-04T07:00:22;8.95;;;2.90;;
64473;SDS011;50857;53.338;8.486;2022-08-04T07:02:49;8.95;;;3.08;;
64473;SDS011;50857;53.338;8.486;2022-08-04T07:05:16;14.20;;;3.22;;
64473;SDS011;50857;53.338;8.486;2022-08-04T07:07:43;11.20;;;2.75;;
64473;SDS011;50857;53.338;8.486;2022-08-04T07:10:12;8.35;;;3.13;;
64473;SDS011;50857;53.338;8.486;2022-08-04T07:12:39;10.77;;;2.97;;
64473;SDS011;50857;53.338;8.486;2022-08-04T07:15:07;8.30;;;3.25;;
64473;SDS011;50857;53.338;8.486;2022-08-04T07:17:33;12.10;;;3.10;;
64473;SDS011;50857;53.338;8.486;2022-08-04T07:20:00;6.60;;;2.70;;
64473;SDS011;50857;53.338;8.486;2022-08-04T07:22:27;8.98;;;3.03;;
64473;SDS011;50857;53.338;8.486;2022-08-04T07:24:54;8.43;;;2.65;;
64473;SDS011;50857;53.338;8.486;2022-08-04T07:27:23;6.88;;;2.83;;
64473;SDS011;50857;53.338;8.486;2022-08-04T07:29:50;9.48;;;3.08;;
64473;SDS011;50857;53.338;8.486;2022-08-04T07:32:16;8.15;;;3.35;;
64473;SDS011;50857;53.338;8.486;2022-08-04T07:34:43;10.02;;;3.10;;
64473;SDS011;50857;53.338;8.486;2022-08-04T07:37:10;8.68;;;3.15;;
64473;SDS011;50857;53.338;8.486;2022-08-04T07:39:37;11.23;;;3.47;;
64473;SDS011;50857;53.338;8.486;2022-08-04T07:42:04;8.27;;;3.40;;
64473;SDS011;50857;53.338;8.486;2022-08-04T07:44:32;6.38;;;3.13;;
64473;SDS011;50857;53.338;8.486;2022-08-04T07:47:00;8.02;;;3.25;;
64473;SDS011;50857;53.338;8.486;2022-08-04T07:49:27;9.55;;;3.45;;
64473;SDS011;50857;53.338;8.486;2022-08-04T07:51:54;9.32;;;3.50;;
64473;SDS011;50857;53.338;8.486;2022-08-04T07:54:20;10.45;;;3.25;;
64473;SDS011;50857;53.338;8.486;2022-08-04T07:56:47;12.32;;;3.35;;
64473;SDS011;50857;53.338;8.486;2022-08-04T07:59:15;8.85;;;3.17;;
64473;SDS011;50857;53.338;8.486;2022-08-04T08:01:43;9.38;;;3.22;;
64473;SDS011;50857;53.338;8.486;2022-08-04T08:04:11;9.70;;;3.58;;
64473;SDS011;50857;53.338;8.486;2022-08-04T08:06:38;9.68;;;3.00;;
64473;SDS011;50857;53.338;8.486;2022-08-04T08:09:06;8.93;;;3.15;;
64473;SDS011;50857;53.338;8.486;2022-08-04T08:11:32;8.95;;;3.15;;
64473;SDS011;50857;53.338;8.486;2022-08-04T08:13:59;10.73;;;3.00;;
64473;SDS011;50857;53.338;8.486;2022-08-04T08:16:26;8.88;;;2.80;;
64473;SDS011;50857;53.338;8.486;2022-08-04T08:18:55;8.73;;;3.35;;
64473;SDS011;50857;53.338;8.486;2022-08-04T08:21:21;7.53;;;2.60;;
64473;SDS011;50857;53.338;8.486;2022-08-04T08:23:48;8.82;;;2.85;;
64473;SDS011;50857;53.338;8.486;2022-08-04T08:26:14;7.78;;;2.83;;
64473;SDS011;50857;53.338;8.486;2022-08-04T08:28:41;9.20;;;3.03;;
64473;SDS011;50857;53.338;8.486;2022-08-04T08:31:08;9.27;;;2.92;;
64473;SDS011;50857;53.338;8.486;2022-08-04T08:33:34;9.32;;;2.80;;
64473;SDS011;50857;53.338;8.486;2022-08-04T08:36:07;9.38;;;3.15;;
64473;SDS011;50857;53.338;8.486;2022-08-04T08:38:39;7.87;;;2.97;;
64473;SDS011;50857;53.338;8.486;2022-08-04T08:41:19;10.43;;;2.67;;
64473;SDS011;50857;53.338;8.486;2022-08-04T08:43:53;8.98;;;2.70;;
64473;SDS011;50857;53.338;8.486;2022-08-04T08:46:46;8.77;;;2.92;;
64473;SDS011;50857;53.338;8.486;2022-08-04T08:49:24;8.48;;;2.97;;
64473;SDS011;50857;53.338;8.486;2022-08-04T08:52:00;8.63;;;2.90;;
64473;SDS011;50857;53.338;8.486;2022-08-04T08:54:42;8.52;;;2.50;;
64473;SDS011;50857;53.338;8.486;2022-08-04T08:57:14;8.43;;;2.70;;
64473;SDS011;50857;53.338;8.486;2022-08-04T08:59:47;9.10;;;2.70;;
64473;SDS011;50857;53.338;8.486;2022-08-04T09:02:22;10.15;;;2.80;;
64473;SDS011;50857;53.338;8.486;2022-08-04T09:05:04;8.65;;;3.15;;
64473;SDS011;50857;53.338;8.486;2022-08-04T09:07:47;7.25;;;2.88;;
64473;SDS011;50857;53.338;8.486;2022-08-04T09:10:19;7.43;;;2.80;;
64473;SDS011;50857;53.338;8.486;2022-08-04T09:12:49;10.63;;;2.67;;
64473;SDS011;50857;53.338;8.486;2022-08-04T09:15:18;8.15;;;2.80;;
64473;SDS011;50857;53.338;8.486;2022-08-04T09:17:47;9.27;;;2.67;;
64473;SDS011;50857;53.338;8.486;2022-08-04T09:20:18;6.75;;;2.65;;
64473;SDS011;50857;53.338;8.486;2022-08-04T09:22:49;11.38;;;2.60;;
64473;SDS011;50857;53.338;8.486;2022-08-04T09:25:18;7.80;;;2.72;;
64473;SDS011;50857;53.338;8.486;2022-08-04T09:27:49;9.50;;;2.90;;
64473;SDS011;50857;53.338;8.486;2022-08-04T09:30:17;8.95;;;2.67;;
64473;SDS011;50857;53.338;8.486;2022-08-04T09:32:46;8.23;;;2.92;;
64473;SDS011;50857;53.338;8.486;2022-08-04T09:35:22;7.53;;;2.40;;
64473;SDS011;50857;53.338;8.486;2022-08-04T09:37:56;6.15;;;2.53;;
64473;SDS011;50857;53.338;8.486;2022-08-04T09:40:25;11.18;;;2.90;;
64473;SDS011;50857;53.338;8.486;2022-08-04T09:42:55;7.18;;;2.63;;
64473;SDS011;50857;53.338;8.486;2022-08-04T09:45:27;8.50;;;2.70;;
64473;SDS011;50857;53.338;8.486;2022-08-04T09:47:56;7.60;;;2.90;;
64473;SDS011;50857;53.338;8.486;2022-08-04T09:50:29;7.78;;;2.92;;
64473;SDS011;50857;53.338;8.486;2022-08-04T09:53:02;8.90;;;2.92;;
64473;SDS011;50857;53.338;8.486;2022-08-04T09:55:34;9.02;;;2.90;;
64473;SDS011;50857;53.338;8.486;2022-08-04T09:58:04;9.57;;;3.15;;
64473;SDS011;50857;53.338;8.486;2022-08-04T10:00:33;8.30;;;3.08;;
64473;SDS011;50857;53.338;8.486;2022-08-04T10:03:01;7.57;;;3.00;;
64473;SDS011;50857;53.338;8.486;2022-08-04T10:05:34;6.85;;;3.05;;
64473;SDS011;50857;53.338;8.486;2022-08-04T10:08:13;12.27;;;3.03;;
64473;SDS011;50857;53.338;8.486;2022-08-04T10:10:46;7.68;;;3.10;;
64473;SDS011;50857;53.338;8.486;2022-08-04T10:13:26;14.63;;;5.22;;
64473;SDS011;50857;53.338;8.486;2022-08-04T10:15:57;30.48;;;9.38;;
64473;SDS011;50857;53.338;8.486;2022-08-04T10:18:29;32.90;;;10.45;;
64473;SDS011;50857;53.338;8.486;2022-08-04T10:20:58;38.65;;;12.95;;
64473;SDS011;50857;53.338;8.486;2022-08-04T10:23:32;40.33;;;12.18;;
64473;SDS011;50857;53.338;8.486;2022-08-04T10:26:02;32.70;;;9.53;;
64473;SDS011;50857;53.338;8.486;2022-08-04T10:28:32;25.13;;;8.18;;
64473;SDS011;50857;53.338;8.486;2022-08-04T10:31:02;23.05;;;7.88;;
64473;SDS011;50857;53.338;8.486;2022-08-04T10:33:30;19.83;;;7.30;;
64473;SDS011;50857;53.338;8.486;2022-08-04T10:35:59;28.90;;;7.65;;
64473;SDS011;50857;53.338;8.486;2022-08-04T10:38:28;15.57;;;6.45;;
64473;SDS011;50857;53.338;8.486;2022-08-04T10:40:57;17.88;;;6.28;;
64473;SDS011;50857;53.338;8.486;2022-08-04T10:43:29;16.25;;;6.10;;
64473;SDS011;50857;53.338;8.486;2022-08-04T10:45:58;20.15;;;6.30;;
64473;SDS011;50857;53.338;8.486;2022-08-04T10:48:29;15.25;;;6.35;;
64473;SDS011;50857;53.338;8.486;2022-08-04T10:51:01;16.83;;;6.30;;
64473;SDS011;50857;53.338;8.486;2022-08-04T10:53:29;15.85;;;5.40;;
64473;SDS011;50857;53.338;8.486;2022-08-04T10:55:58;19.50;;;6.00;;
64473;SDS011;50857;53.338;8.486;2022-08-04T10:58:28;15.30;;;5.53;;
64473;SDS011;50857;53.338;8.486;2022-08-04T11:00:55;12.07;;;4.72;;
64473;SDS011;50857;53.338;8.486;2022-08-04T11:03:23;9.18;;;3.97;;
64473;SDS011;50857;53.338;8.486;2022-08-04T11:05:52;10.27;;;4.00;;
64473;SDS011;50857;53.338;8.486;2022-08-04T11:08:20;11.38;;;4.05;;
64473;SDS011;50857;53.338;8.486;2022-08-04T11:10:47;9.95;;;3.78;;
64473;SDS011;50857;53.338;8.486;2022-08-04T11:13:17;7.97;;;3.92;;
64473;SDS011;50857;53.338;8.486;2022-08-04T11:15:45;8.95;;;3.30;;
64473;SDS011;50857;53.338;8.486;2022-08-04T11:18:14;9.10;;;4.07;;
64473;SDS011;50857;53.338;8.486;2022-08-04T11:20:43;12.77;;;4.30;;
64473;SDS011;50857;53.338;8.486;2022-08-04T11:23:13;8.32;;;3.97;;
64473;SDS011;50857;53.338;8.486;2022-08-04T11:25:43;10.02;;;3.78;;
64473;SDS011;50857;53.338;8.486;2022-08-04T11:28:12;9.13;;;3.92;;
64473;SDS011;50857;53.338;8.486;2022-08-04T11:30:45;7.72;;;3.92;;
64473;SDS011;50857;53.338;8.486;2022-08-04T11:33:20;7.68;;;3.42;;
64473;SDS011;50857;53.338;8.486;2022-08-04T11:35:49;8.77;;;3.30;;
64473;SDS011;50857;53.338;8.486;2022-08-04T11:38:19;6.85;;;3.40;;
64473;SDS011;50857;53.338;8.486;2022-08-04T11:40:46;7.65;;;3.25;;
64473;SDS011;50857;53.338;8.486;2022-08-04T11:43:15;7.35;;;3.15;;
64473;SDS011;50857;53.338;8.486;2022-08-04T11:45:46;8.50;;;3.17;;
64473;SDS011;50857;53.338;8.486;2022-08-04T11:48:16;5.40;;;3.03;;
64473;SDS011;50857;53.338;8.486;2022-08-04T11:50:46;7.05;;;3.00;;
64473;SDS011;50857;53.338;8.486;2022-08-04T11:53:15;5.10;;;2.70;;
64473;SDS011;50857;53.338;8.486;2022-08-04T11:55:44;6.63;;;3.00;;
64473;SDS011;50857;53.338;8.486;2022-08-04T11:58:13;7.20;;;3.00;;
64473;SDS011;50857;53.338;8.486;2022-08-04T12:00:41;7.55;;;2.80;;
64473;SDS011;50857;53.338;8.486;2022-08-04T12:03:14;8.13;;;2.88;;
64473;SDS011;50857;53.338;8.486;2022-08-04T12:05:46;5.85;;;3.17;;
64473;SDS011;50857;53.338;8.486;2022-08-04T12:08:25;6.63;;;2.75;;
64473;SDS011;50857;53.338;8.486;2022-08-04T12:10:57;5.32;;;2.83;;
64473;SDS011;50857;53.338;8.486;2022-08-04T12:13:30;5.80;;;2.90;;
64473;SDS011;50857;53.338;8.486;2022-08-04T12:16:02;7.85;;;2.80;;
64473;SDS011;50857;53.338;8.486;2022-08-04T12:18:32;7.68;;;2.80;;
64473;SDS011;50857;53.338;8.486;2022-08-04T12:21:00;7.60;;;2.75;;
64473;SDS011;50857;53.338;8.486;2022-08-04T12:23:35;9.05;;;2.75;;
64473;SDS011;50857;53.338;8.486;2022-08-04T12:26:02;8.00;;;3.00;;
64473;SDS011;50857;53.338;8.486;2022-08-04T12:28:31;10.90;;;3.60;;
64473;SDS011;50857;53.338;8.486;2022-08-04T12:30:59;8.43;;;3.90;;
64473;SDS011;50857;53.338;8.486;2022-08-04T12:33:28;9.38;;;3.22;;
64473;SDS011;50857;53.338;8.486;2022-08-04T12:35:58;7.80;;;3.58;;
64473;SDS011;50857;53.338;8.486;2022-08-04T12:38:28;9.32;;;3.42;;
64473;SDS011;50857;53.338;8.486;2022-08-04T12:40:58;12.63;;;3.92;;
64473;SDS011;50857;53.338;8.486;2022-08-04T12:43:28;10.32;;;3.88;;
64473;SDS011;50857;53.338;8.486;2022-08-04T12:45:56;10.70;;;4.10;;
64473;SDS011;50857;53.338;8.486;2022-08-04T12:48:23;10.88;;;4.13;;
64473;SDS011;50857;53.338;8.486;2022-08-04T12:50:51;9.80;;;4.07;;
64473;SDS011;50857;53.338;8.486;2022-08-04T12:53:19;8.30;;;4.00;;
64473;SDS011;50857;53.338;8.486;2022-08-04T12:55:47;9.30;;;4.45;;
64473;SDS011;50857;53.338;8.486;2022-08-04T12:58:16;8.23;;;4.18;;
64473;SDS011;50857;53.338;8.486;2022-08-04T13:00:45;10.93;;;4.57;;
64473;SDS011;50857;53.338;8.486;2022-08-04T13:03:15;10.05;;;4.20;;
64473;SDS011;50857;53.338;8.486;2022-08-04T13:05:44;11.18;;;4.00;;
64473;SDS011;50857;53.338;8.486;2022-08-04T13:08:11;11.23;;;4.10;;
64473;SDS011;50857;53.338;8.486;2022-08-04T13:10:42;10.65;;;3.90;;
64473;SDS011;50857;53.338;8.486;2022-08-04T13:13:13;14.38;;;4.00;;
64473;SDS011;50857;53.338;8.486;2022-08-04T13:15:40;8.48;;;4.13;;
64473;SDS011;50857;53.338;8.486;2022-08-04T13:18:07;11.55;;;3.97;;
64473;SDS011;50857;53.338;8.486;2022-08-04T13:20:37;10.63;;;3.75;;
64473;SDS011;50857;53.338;8.486;2022-08-04T13:23:04;12.30;;;3.80;;
64473;SDS011;50857;53.338;8.486;2022-08-04T13:25:31;9.60;;;3.88;;
64473;SDS011;50857;53.338;8.486;2022-08-04T13:28:00;8.90;;;3.97;;
64473;SDS011;50857;53.338;8.486;2022-08-04T13:30:27;11.80;;;3.85;;
64473;SDS011;50857;53.338;8.486;2022-08-04T13:32:56;9.10;;;3.92;;
64473;SDS011;50857;53.338;8.486;2022-08-04T13:35:23;11.48;;;4.35;;
64473;SDS011;50857;53.338;8.486;2022-08-04T13:37:50;9.13;;;3.72;;
64473;SDS011;50857;53.338;8.486;2022-08-04T13:40:18;6.95;;;3.95;;
64473;SDS011;50857;53.338;8.486;2022-08-04T13:42:46;9.30;;;3.80;;
64473;SDS011;50857;53.338;8.486;2022-08-04T13:45:15;7.15;;;3.55;;
64473;SDS011;50857;53.338;8.486;2022-08-04T13:47:45;8.50;;;3.60;;
64473;SDS011;50857;53.338;8.486;2022-08-04T13:50:17;8.18;;;3.60;;
64473;SDS011;50857;53.338;8.486;2022-08-04T13:52:44;10.68;;;4.22;;
64473;SDS011;50857;53.338;8.486;2022-08-04T13:55:24;9.13;;;3.95;;
64473;SDS011;50857;53.338;8.486;2022-08-04T13:57:56;8.05;;;3.55;;
64473;SDS011;50857;53.338;8.486;2022-08-04T14:00:24;9.57;;;3.95;;
64473;SDS011;50857;53.338;8.486;2022-08-04T14:02:56;9.93;;;4.28;;
64473;SDS011;50857;53.338;8.486;2022-08-04T14:05:25;10.63;;;4.07;;
64473;SDS011;50857;53.338;8.486;2022-08-04T14:07:53;8.50;;;3.60;;
64473;SDS011;50857;53.338;8.486;2022-08-04T14:10:20;7.72;;;2.90;;
64473;SDS011;50857;53.338;8.486;2022-08-04T14:12:48;8.35;;;3.13;;
64473;SDS011;50857;53.338;8.486;2022-08-04T14:15:29;8.98;;;2.95;;
64473;SDS011;50857;53.338;8.486;2022-08-04T14:18:00;7.70;;;2.92;;
64473;SDS011;50857;53.338;8.486;2022-08-04T14:20:44;9.48;;;2.67;;
64473;SDS011;50857;53.338;8.486;2022-08-04T14:23:22;7.63;;;2.40;;
64473;SDS011;50857;53.338;8.486;2022-08-04T14:25:49;8.23;;;2.35;;
64473;SDS011;50857;53.338;8.486;2022-08-04T14:28:25;6.45;;;2.15;;
64473;SDS011;50857;53.338;8.486;2022-08-04T14:30:53;9.55;;;2.60;;
64473;SDS011;50857;53.338;8.486;2022-08-04T14:33:35;7.20;;;2.20;;
64473;SDS011;50857;53.338;8.486;2022-08-04T14:36:02;7.10;;;2.13;;
64473;SDS011;50857;53.338;8.486;2022-08-04T14:38:40;5.80;;;2.53;;
64473;SDS011;50857;53.338;8.486;2022-08-04T14:41:06;8.02;;;2.38;;
64473;SDS011;50857;53.338;8.486;2022-08-04T14:43:39;5.47;;;1.98;;
64473;SDS011;50857;53.338;8.486;2022-08-04T14:46:08;8.73;;;2.08;;
64473;SDS011;50857;53.338;8.486;2022-08-04T14:48:35;6.65;;;2.28;;
64473;SDS011;50857;53.338;8.486;2022-08-04T14:51:02;6.72;;;2.25;;
64473;SDS011;50857;53.338;8.486;2022-08-04T14:53:28;6.18;;;2.25;;
64473;SDS011;50857;53.338;8.486;2022-08-04T14:55:56;7.55;;;2.20;;
64473;SDS011;50857;53.338;8.486;2022-08-04T14:58:23;5.75;;;2.17;;
64473;SDS011;50857;53.338;8.486;2022-08-04T15:00:51;6.28;;;2.30;;
64473;SDS011;50857;53.338;8.486;2022-08-04T15:03:20;6.32;;;2.03;;
64473;SDS011;50857;53.338;8.486;2022-08-04T15:05:48;6.75;;;2.20;;
64473;SDS011;50857;53.338;8.486;2022-08-04T15:08:15;5.13;;;2.20;;
64473;SDS011;50857;53.338;8.486;2022-08-04T15:10:42;6.40;;;2.05;;
64473;SDS011;50857;53.338;8.486;2022-08-04T15:13:09;8.27;;;2.08;;
64473;SDS011;50857;53.338;8.486;2022-08-04T15:15:37;6.45;;;1.90;;
64473;SDS011;50857;53.338;8.486;2022-08-04T15:18:06;5.50;;;1.95;;
64473;SDS011;50857;53.338;8.486;2022-08-04T15:20:34;5.80;;;1.90;;
64473;SDS011;50857;53.338;8.486;2022-08-04T15:23:02;6.25;;;1.83;;
64473;SDS011;50857;53.338;8.486;2022-08-04T15:25:30;5.05;;;1.80;;
64473;SDS011;50857;53.338;8.486;2022-08-04T15:27:57;6.85;;;2.10;;
64473;SDS011;50857;53.338;8.486;2022-08-04T15:30:24;6.38;;;1.90;;
64473;SDS011;50857;53.338;8.486;2022-08-04T15:32:56;7.35;;;1.80;;
64473;SDS011;50857;53.338;8.486;2022-08-04T15:35:23;6.53;;;2.20;;
64473;SDS011;50857;53.338;8.486;2022-08-04T15:37:53;6.30;;;1.90;;
64473;SDS011;50857;53.338;8.486;2022-08-04T15:40:24;6.75;;;2.05;;
64473;SDS011;50857;53.338;8.486;2022-08-04T15:42:59;4.90;;;1.70;;